sensor_id;sensor_type;location;lat;lon;timestamp;P1;durP1;ratioP1;P2;durP2;ratioP2
24325;SDS011;12448;45.532;5.290;2023-01-05T00:01:50;9.57;;;5.63;;
24325;SDS011;12448;45.532;5.290;2023-01-05T00:04:16;6.78;;;4.68;;
24325;SDS011;12448;45.532;5.290;2023-01-05T00:06:42;10.88;;;4.57;;
24325;SDS011;12448;45.532;5.290;2023-01-05T00:09:09;12.75;;;5.50;;
24325;SDS011;12448;45.532;5.290;2023-01-05T00:11:36;7.82;;;4.30;;
24325;SDS011;12448;45.532;5.290;2023-01-05T00:14:21;5.72;;;4.03;;
24325;SDS011;12448;45.532;5.290;2023-01-05T00:17:12;7.13;;;3.78;;
24325;SDS011;12448;45.532;5.290;2023-01-05T00:19:58;8.88;;;4.22;;
24325;SDS011;12448;45.532;5.290;2023-01-05T00:25:19;4.78;;;2.88;;
24325;SDS011;12448;45.532;5.290;2023-01-05T00:27:45;6.78;;;3.22;;
24325;SDS011;12448;45.532;5.290;2023-01-05T00:30:13;5.50;;;2.72;;
24325;SDS011;12448;45.532;5.290;2023-01-05T00:32:41;3.70;;;2.40;;
24325;SDS011;12448;45.532;5.290;2023-01-05T00:35:07;2.38;;;1.55;;
24325;SDS011;12448;45.532;5.290;2023-01-05T00:37:34;2.72;;;1.77;;
24325;SDS011;12448;45.532;5.290;2023-01-05T00:40:02;5.20;;;3.00;;
24325;SDS011;12448;45.532;5.290;2023-01-05T00:42:29;12.45;;;7.32;;
24325;SDS011;12448;45.532;5.290;2023-01-05T00:44:55;9.52;;;5.70;;
24325;SDS011;12448;45.532;5.290;2023-01-05T00:47:21;18.55;;;7.97;;
24325;SDS011;12448;45.532;5.290;2023-01-05T00:49:46;17.77;;;10.98;;
24325;SDS011;12448;45.532;5.290;2023-01-05T00:52:12;19.90;;;11.68;;
24325;SDS011;12448;45.532;5.290;2023-01-05T00:54:37;16.70;;;9.18;;
24325;SDS011;12448;45.532;5.290;2023-01-05T00:57:03;11.68;;;7.47;;
24325;SDS011;12448;45.532;5.290;2023-01-05T00:59:31;12.63;;;7.22;;
24325;SDS011;12448;45.532;5.290;2023-01-05T01:01:56;12.40;;;7.80;;
24325;SDS011;12448;45.532;5.290;2023-01-05T01:04:22;13.32;;;9.52;;
24325;SDS011;12448;45.532;5.290;2023-01-05T01:06:48;15.45;;;10.77;;
24325;SDS011;12448;45.532;5.290;2023-01-05T01:09:14;15.13;;;10.25;;
24325;SDS011;12448;45.532;5.290;2023-01-05T01:11:40;13.82;;;9.85;;
24325;SDS011;12448;45.532;5.290;2023-01-05T01:14:07;8.98;;;6.03;;
24325;SDS011;12448;45.532;5.290;2023-01-05T01:16:34;10.60;;;6.43;;
24325;SDS011;12448;45.532;5.290;2023-01-05T01:19:00;14.55;;;6.85;;
24325;SDS011;12448;45.532;5.290;2023-01-05T01:21:25;9.27;;;5.47;;
24325;SDS011;12448;45.532;5.290;2023-01-05T01:23:51;11.90;;;6.25;;
24325;SDS011;12448;45.532;5.290;2023-01-05T01:26:17;6.50;;;4.85;;
24325;SDS011;12448;45.532;5.290;2023-01-05T01:28:45;7.45;;;4.90;;
24325;SDS011;12448;45.532;5.290;2023-01-05T01:31:11;8.02;;;4.97;;
24325;SDS011;12448;45.532;5.290;2023-01-05T01:33:38;7.80;;;4.47;;
24325;SDS011;12448;45.532;5.290;2023-01-05T01:36:03;6.75;;;4.65;;
24325;SDS011;12448;45.532;5.290;2023-01-05T01:38:30;6.32;;;4.53;;
24325;SDS011;12448;45.532;5.290;2023-01-05T01:40:55;6.63;;;4.60;;
24325;SDS011;12448;45.532;5.290;2023-01-05T01:46:07;6.32;;;4.28;;
24325;SDS011;12448;45.532;5.290;2023-01-05T01:48:34;6.72;;;4.38;;
24325;SDS011;12448;45.532;5.290;2023-01-05T01:51:04;5.68;;;3.85;;
24325;SDS011;12448;45.532;5.290;2023-01-05T01:53:36;6.50;;;4.20;;
24325;SDS011;12448;45.532;5.290;2023-01-05T01:56:06;5.93;;;4.00;;
24325;SDS011;12448;45.532;5.290;2023-01-05T01:58:35;5.40;;;3.75;;
24325;SDS011;12448;45.532;5.290;2023-01-05T02:01:01;7.53;;;3.58;;
24325;SDS011;12448;45.532;5.290;2023-01-05T02:03:28;5.32;;;2.90;;
24325;SDS011;12448;45.532;5.290;2023-01-05T02:05:54;5.25;;;3.20;;
24325;SDS011;12448;45.532;5.290;2023-01-05T02:08:20;4.05;;;2.63;;
24325;SDS011;12448;45.532;5.290;2023-01-05T02:16:35;2.97;;;2.35;;
24325;SDS011;12448;45.532;5.290;2023-01-05T02:41:22;4.18;;;1.98;;
24325;SDS011;12448;45.532;5.290;2023-01-05T02:43:54;3.28;;;1.48;;
24325;SDS011;12448;45.532;5.290;2023-01-05T02:46:21;4.45;;;1.50;;
24325;SDS011;12448;45.532;5.290;2023-01-05T02:48:46;1.80;;;1.60;;
24325;SDS011;12448;45.532;5.290;2023-01-05T02:51:15;3.78;;;1.60;;
24325;SDS011;12448;45.532;5.290;2023-01-05T02:53:52;3.10;;;1.75;;
24325;SDS011;12448;45.532;5.290;2023-01-05T02:56:24;4.45;;;1.65;;
24325;SDS011;12448;45.532;5.290;2023-01-05T02:59:16;1.52;;;1.10;;
24325;SDS011;12448;45.532;5.290;2023-01-05T03:01:46;2.75;;;1.35;;
24325;SDS011;12448;45.532;5.290;2023-01-05T03:04:25;3.38;;;1.20;;
24325;SDS011;12448;45.532;5.290;2023-01-05T03:06:58;2.95;;;1.00;;
24325;SDS011;12448;45.532;5.290;2023-01-05T03:09:29;2.80;;;1.20;;
24325;SDS011;12448;45.532;5.290;2023-01-05T03:17:55;2.92;;;1.20;;
24325;SDS011;12448;45.532;5.290;2023-01-05T03:20:27;2.97;;;1.00;;
24325;SDS011;12448;45.532;5.290;2023-01-05T03:22:56;2.47;;;1.02;;
24325;SDS011;12448;45.532;5.290;2023-01-05T03:25:42;3.20;;;1.13;;
24325;SDS011;12448;45.532;5.290;2023-01-05T03:28:30;2.33;;;1.00;;
24325;SDS011;12448;45.532;5.290;2023-01-05T03:39:31;0.75;;;0.75;;
24325;SDS011;12448;45.532;5.290;2023-01-05T03:41:58;2.20;;;0.98;;
24325;SDS011;12448;45.532;5.290;2023-01-05T03:44:24;2.88;;;0.95;;
24325;SDS011;12448;45.532;5.290;2023-01-05T03:46:50;3.78;;;0.90;;
24325;SDS011;12448;45.532;5.290;2023-01-05T03:49:16;2.70;;;1.08;;
24325;SDS011;12448;45.532;5.290;2023-01-05T03:51:42;1.70;;;0.90;;
24325;SDS011;12448;45.532;5.290;2023-01-05T03:54:07;2.22;;;1.38;;
24325;SDS011;12448;45.532;5.290;2023-01-05T03:56:33;5.10;;;2.17;;
24325;SDS011;12448;45.532;5.290;2023-01-05T03:58:59;4.35;;;2.45;;
24325;SDS011;12448;45.532;5.290;2023-01-05T04:01:24;5.78;;;2.83;;
24325;SDS011;12448;45.532;5.290;2023-01-05T04:03:50;8.35;;;2.83;;
24325;SDS011;12448;45.532;5.290;2023-01-05T04:06:16;4.95;;;2.50;;
24325;SDS011;12448;45.532;5.290;2023-01-05T04:08:41;4.05;;;2.60;;
24325;SDS011;12448;45.532;5.290;2023-01-05T04:11:14;4.82;;;2.80;;
24325;SDS011;12448;45.532;5.290;2023-01-05T04:13:42;4.05;;;1.60;;
24325;SDS011;12448;45.532;5.290;2023-01-05T04:16:08;4.70;;;1.45;;
24325;SDS011;12448;45.532;5.290;2023-01-05T04:18:33;3.67;;;1.30;;
24325;SDS011;12448;45.532;5.290;2023-01-05T04:20:59;4.32;;;1.50;;
24325;SDS011;12448;45.532;5.290;2023-01-05T04:23:25;1.20;;;1.10;;
24325;SDS011;12448;45.532;5.290;2023-01-05T04:25:50;3.80;;;1.35;;
24325;SDS011;12448;45.532;5.290;2023-01-05T04:28:16;1.92;;;1.20;;
24325;SDS011;12448;45.532;5.290;2023-01-05T04:30:42;5.85;;;1.70;;
24325;SDS011;12448;45.532;5.290;2023-01-05T04:33:08;1.77;;;1.42;;
24325;SDS011;12448;45.532;5.290;2023-01-05T04:35:34;3.63;;;1.55;;
24325;SDS011;12448;45.532;5.290;2023-01-05T04:38:00;3.95;;;1.67;;
24325;SDS011;12448;45.532;5.290;2023-01-05T04:40:25;2.25;;;1.50;;
24325;SDS011;12448;45.532;5.290;2023-01-05T04:42:51;2.97;;;1.58;;
24325;SDS011;12448;45.532;5.290;2023-01-05T04:45:17;2.38;;;1.55;;
24325;SDS011;12448;45.532;5.290;2023-01-05T04:47:42;3.42;;;1.52;;
24325;SDS011;12448;45.532;5.290;2023-01-05T04:50:08;3.95;;;1.30;;
24325;SDS011;12448;45.532;5.290;2023-01-05T04:52:34;2.03;;;1.45;;
24325;SDS011;12448;45.532;5.290;2023-01-05T04:55:00;2.25;;;1.63;;
24325;SDS011;12448;45.532;5.290;2023-01-05T04:57:25;3.95;;;1.77;;
24325;SDS011;12448;45.532;5.290;2023-01-05T04:59:51;2.83;;;1.58;;
24325;SDS011;12448;45.532;5.290;2023-01-05T05:02:17;4.75;;;1.98;;
24325;SDS011;12448;45.532;5.290;2023-01-05T05:04:42;3.38;;;1.65;;
24325;SDS011;12448;45.532;5.290;2023-01-05T05:07:08;4.40;;;1.80;;
24325;SDS011;12448;45.532;5.290;2023-01-05T05:09:34;3.60;;;2.05;;
24325;SDS011;12448;45.532;5.290;2023-01-05T05:11:59;3.47;;;2.20;;
24325;SDS011;12448;45.532;5.290;2023-01-05T05:14:25;3.35;;;2.28;;
24325;SDS011;12448;45.532;5.290;2023-01-05T05:16:51;3.22;;;2.00;;
24325;SDS011;12448;45.532;5.290;2023-01-05T05:19:16;4.95;;;2.05;;
24325;SDS011;12448;45.532;5.290;2023-01-05T05:21:42;4.65;;;2.30;;
24325;SDS011;12448;45.532;5.290;2023-01-05T05:24:08;4.00;;;1.90;;
24325;SDS011;12448;45.532;5.290;2023-01-05T05:26:33;2.85;;;2.00;;
24325;SDS011;12448;45.532;5.290;2023-01-05T05:28:59;2.70;;;1.90;;
24325;SDS011;12448;45.532;5.290;2023-01-05T05:31:24;3.92;;;2.13;;
24325;SDS011;12448;45.532;5.290;2023-01-05T05:33:50;2.17;;;1.75;;
24325;SDS011;12448;45.532;5.290;2023-01-05T05:36:16;2.42;;;1.60;;
24325;SDS011;12448;45.532;5.290;2023-01-05T05:38:42;3.85;;;1.90;;
24325;SDS011;12448;45.532;5.290;2023-01-05T05:41:08;4.30;;;1.80;;
24325;SDS011;12448;45.532;5.290;2023-01-05T05:43:34;3.05;;;2.35;;
24325;SDS011;12448;45.532;5.290;2023-01-05T05:45:59;3.30;;;1.80;;
24325;SDS011;12448;45.532;5.290;2023-01-05T05:48:25;2.58;;;1.65;;
24325;SDS011;12448;45.532;5.290;2023-01-05T05:50:51;3.45;;;1.60;;
24325;SDS011;12448;45.532;5.290;2023-01-05T05:53:16;2.90;;;1.65;;
24325;SDS011;12448;45.532;5.290;2023-01-05T05:55:42;3.45;;;1.67;;
24325;SDS011;12448;45.532;5.290;2023-01-05T05:58:11;7.35;;;1.70;;
24325;SDS011;12448;45.532;5.290;2023-01-05T06:00:37;2.08;;;1.50;;
24325;SDS011;12448;45.532;5.290;2023-01-05T06:03:02;5.65;;;1.75;;
24325;SDS011;12448;45.532;5.290;2023-01-05T06:05:29;6.63;;;2.00;;
24325;SDS011;12448;45.532;5.290;2023-01-05T06:07:54;5.47;;;1.58;;
24325;SDS011;12448;45.532;5.290;2023-01-05T06:10:22;2.80;;;1.40;;
24325;SDS011;12448;45.532;5.290;2023-01-05T06:12:48;2.83;;;1.30;;
24325;SDS011;12448;45.532;5.290;2023-01-05T06:15:13;5.72;;;1.80;;
24325;SDS011;12448;45.532;5.290;2023-01-05T06:17:39;2.78;;;1.92;;
24325;SDS011;12448;45.532;5.290;2023-01-05T06:20:05;2.83;;;1.90;;
24325;SDS011;12448;45.532;5.290;2023-01-05T06:22:32;7.43;;;2.38;;
24325;SDS011;12448;45.532;5.290;2023-01-05T06:24:58;4.20;;;2.47;;
24325;SDS011;12448;45.532;5.290;2023-01-05T06:27:23;4.45;;;2.67;;
24325;SDS011;12448;45.532;5.290;2023-01-05T06:29:49;4.22;;;2.72;;
24325;SDS011;12448;45.532;5.290;2023-01-05T06:32:14;2.72;;;2.15;;
24325;SDS011;12448;45.532;5.290;2023-01-05T06:34:40;4.90;;;2.50;;
24325;SDS011;12448;45.532;5.290;2023-01-05T06:37:06;2.80;;;2.42;;
24325;SDS011;12448;45.532;5.290;2023-01-05T06:39:31;2.80;;;1.70;;
24325;SDS011;12448;45.532;5.290;2023-01-05T06:41:57;3.58;;;1.92;;
24325;SDS011;12448;45.532;5.290;2023-01-05T06:44:22;2.13;;;1.70;;
24325;SDS011;12448;45.532;5.290;2023-01-05T06:46:48;2.70;;;2.17;;
24325;SDS011;12448;45.532;5.290;2023-01-05T06:49:13;3.28;;;2.20;;
24325;SDS011;12448;45.532;5.290;2023-01-05T06:51:39;2.03;;;1.60;;
24325;SDS011;12448;45.532;5.290;2023-01-05T06:54:05;1.98;;;1.60;;
24325;SDS011;12448;45.532;5.290;2023-01-05T06:56:31;2.47;;;1.55;;
24325;SDS011;12448;45.532;5.290;2023-01-05T06:58:57;3.63;;;1.70;;
24325;SDS011;12448;45.532;5.290;2023-01-05T07:01:22;2.30;;;1.77;;
24325;SDS011;12448;45.532;5.290;2023-01-05T07:03:48;2.67;;;1.95;;
24325;SDS011;12448;45.532;5.290;2023-01-05T07:06:14;2.30;;;1.90;;
24325;SDS011;12448;45.532;5.290;2023-01-05T07:08:39;3.83;;;2.40;;
24325;SDS011;12448;45.532;5.290;2023-01-05T07:11:05;2.38;;;1.90;;
24325;SDS011;12448;45.532;5.290;2023-01-05T07:13:31;5.30;;;2.33;;
24325;SDS011;12448;45.532;5.290;2023-01-05T07:15:56;4.65;;;2.10;;
24325;SDS011;12448;45.532;5.290;2023-01-05T07:18:22;3.00;;;1.52;;
24325;SDS011;12448;45.532;5.290;2023-01-05T07:20:48;1.77;;;1.40;;
24325;SDS011;12448;45.532;5.290;2023-01-05T07:23:13;2.35;;;2.05;;
24325;SDS011;12448;45.532;5.290;2023-01-05T07:25:39;5.93;;;2.00;;
24325;SDS011;12448;45.532;5.290;2023-01-05T07:28:05;3.47;;;1.70;;
24325;SDS011;12448;45.532;5.290;2023-01-05T07:30:30;3.25;;;2.20;;
24325;SDS011;12448;45.532;5.290;2023-01-05T07:32:56;3.75;;;2.67;;
24325;SDS011;12448;45.532;5.290;2023-01-05T07:35:23;4.00;;;2.60;;
24325;SDS011;12448;45.532;5.290;2023-01-05T07:37:48;2.53;;;2.08;;
24325;SDS011;12448;45.532;5.290;2023-01-05T07:40:14;4.90;;;2.53;;
24325;SDS011;12448;45.532;5.290;2023-01-05T07:42:40;3.28;;;2.38;;
24325;SDS011;12448;45.532;5.290;2023-01-05T07:45:06;2.40;;;1.92;;
24325;SDS011;12448;45.532;5.290;2023-01-05T07:47:32;2.60;;;2.20;;
24325;SDS011;12448;45.532;5.290;2023-01-05T07:49:58;12.45;;;6.22;;
24325;SDS011;12448;45.532;5.290;2023-01-05T07:52:23;16.05;;;7.80;;
24325;SDS011;12448;45.532;5.290;2023-01-05T07:54:49;9.98;;;5.10;;
24325;SDS011;12448;45.532;5.290;2023-01-05T07:57:14;9.98;;;4.72;;
24325;SDS011;12448;45.532;5.290;2023-01-05T07:59:40;11.68;;;5.15;;
24325;SDS011;12448;45.532;5.290;2023-01-05T08:02:07;9.70;;;4.78;;
24325;SDS011;12448;45.532;5.290;2023-01-05T08:04:33;10.10;;;5.25;;
24325;SDS011;12448;45.532;5.290;2023-01-05T08:06:58;11.32;;;5.30;;
24325;SDS011;12448;45.532;5.290;2023-01-05T08:09:25;8.57;;;4.57;;
24325;SDS011;12448;45.532;5.290;2023-01-05T08:12:10;5.85;;;3.20;;
24325;SDS011;12448;45.532;5.290;2023-01-05T08:14:35;4.07;;;2.42;;
24325;SDS011;12448;45.532;5.290;2023-01-05T08:17:01;3.20;;;1.27;;
24325;SDS011;12448;45.532;5.290;2023-01-05T08:19:26;1.25;;;1.10;;
24325;SDS011;12448;45.532;5.290;2023-01-05T08:21:52;1.08;;;0.77;;
24325;SDS011;12448;45.532;5.290;2023-01-05T08:24:18;1.77;;;1.17;;
24325;SDS011;12448;45.532;5.290;2023-01-05T08:26:43;1.75;;;1.30;;
24325;SDS011;12448;45.532;5.290;2023-01-05T08:29:09;1.80;;;1.70;;
24325;SDS011;12448;45.532;5.290;2023-01-05T08:31:35;17.83;;;8.50;;
24325;SDS011;12448;45.532;5.290;2023-01-05T08:34:03;114.88;;;34.85;;
24325;SDS011;12448;45.532;5.290;2023-01-05T08:36:29;750.63;;;339.58;;
24325;SDS011;12448;45.532;5.290;2023-01-05T08:38:56;267.73;;;103.72;;
24325;SDS011;12448;45.532;5.290;2023-01-05T08:41:26;242.50;;;102.20;;
24325;SDS011;12448;45.532;5.290;2023-01-05T08:43:53;705.15;;;331.23;;
24325;SDS011;12448;45.532;5.290;2023-01-05T08:46:20;464.00;;;226.05;;
24325;SDS011;12448;45.532;5.290;2023-01-05T08:48:51;397.25;;;227.27;;
24325;SDS011;12448;45.532;5.290;2023-01-05T08:51:17;454.40;;;276.42;;
24325;SDS011;12448;45.532;5.290;2023-01-05T08:53:43;297.33;;;171.70;;
24325;SDS011;12448;45.532;5.290;2023-01-05T08:56:09;190.75;;;112.57;;
24325;SDS011;12448;45.532;5.290;2023-01-05T08:58:35;168.27;;;60.72;;
24325;SDS011;12448;45.532;5.290;2023-01-05T09:01:09;520.33;;;119.47;;
24325;SDS011;12448;45.532;5.290;2023-01-05T09:03:36;202.15;;;45.92;;
24325;SDS011;12448;45.532;5.290;2023-01-05T09:06:02;267.50;;;77.65;;
24325;SDS011;12448;45.532;5.290;2023-01-05T09:08:29;248.07;;;72.90;;
24325;SDS011;12448;45.532;5.290;2023-01-05T09:13:55;50.97;;;21.25;;
24325;SDS011;12448;45.532;5.290;2023-01-05T09:16:22;92.18;;;33.53;;
24325;SDS011;12448;45.532;5.290;2023-01-05T09:18:50;448.20;;;137.13;;
24325;SDS011;12448;45.532;5.290;2023-01-05T09:21:16;658.80;;;195.82;;
24325;SDS011;12448;45.532;5.290;2023-01-05T09:23:42;128.45;;;39.00;;
24325;SDS011;12448;45.532;5.290;2023-01-05T09:26:09;106.95;;;44.30;;
24325;SDS011;12448;45.532;5.290;2023-01-05T09:28:35;316.00;;;91.47;;
24325;SDS011;12448;45.532;5.290;2023-01-05T09:31:08;223.10;;;67.82;;
24325;SDS011;12448;45.532;5.290;2023-01-05T09:33:42;174.98;;;48.10;;
24325;SDS011;12448;45.532;5.290;2023-01-05T09:36:09;314.30;;;80.18;;
24325;SDS011;12448;45.532;5.290;2023-01-05T09:38:36;290.95;;;75.90;;
24325;SDS011;12448;45.532;5.290;2023-01-05T09:43:59;109.60;;;27.48;;
24325;SDS011;12448;45.532;5.290;2023-01-05T09:46:31;8.25;;;4.75;;
24325;SDS011;12448;45.532;5.290;2023-01-05T09:49:02;25.77;;;11.93;;
24325;SDS011;12448;45.532;5.290;2023-01-05T09:51:30;3.25;;;1.88;;
24325;SDS011;12448;45.532;5.290;2023-01-05T09:53:58;3.47;;;1.70;;
24325;SDS011;12448;45.532;5.290;2023-01-05T09:56:26;1.05;;;0.90;;
24325;SDS011;12448;45.532;5.290;2023-01-05T09:58:52;1.17;;;1.08;;
24325;SDS011;12448;45.532;5.290;2023-01-05T10:01:31;42.35;;;27.98;;
24325;SDS011;12448;45.532;5.290;2023-01-05T10:03:59;6.72;;;3.45;;
24325;SDS011;12448;45.532;5.290;2023-01-05T10:06:28;4.65;;;2.88;;
24325;SDS011;12448;45.532;5.290;2023-01-05T10:08:58;2.95;;;1.70;;
24325;SDS011;12448;45.532;5.290;2023-01-05T10:11:33;31.58;;;21.23;;
24325;SDS011;12448;45.532;5.290;2023-01-05T10:14:46;15.32;;;10.90;;
24325;SDS011;12448;45.532;5.290;2023-01-05T10:17:17;38.78;;;25.45;;
24325;SDS011;12448;45.532;5.290;2023-01-05T10:19:45;68.88;;;46.08;;
24325;SDS011;12448;45.532;5.290;2023-01-05T10:25:31;6.05;;;4.40;;
24325;SDS011;12448;45.532;5.290;2023-01-05T10:36:21;5.68;;;3.90;;
24325;SDS011;12448;45.532;5.290;2023-01-05T10:39:28;4.18;;;3.13;;
24325;SDS011;12448;45.532;5.290;2023-01-05T10:42:17;48.30;;;30.95;;
24325;SDS011;12448;45.532;5.290;2023-01-05T10:45:02;37.10;;;23.27;;
24325;SDS011;12448;45.532;5.290;2023-01-05T10:47:29;9.50;;;6.93;;
24325;SDS011;12448;45.532;5.290;2023-01-05T10:49:59;52.63;;;37.13;;
24325;SDS011;12448;45.532;5.290;2023-01-05T10:52:26;45.80;;;34.17;;
24325;SDS011;12448;45.532;5.290;2023-01-05T10:54:55;43.13;;;31.60;;
24325;SDS011;12448;45.532;5.290;2023-01-05T11:02:32;46.53;;;32.75;;
24325;SDS011;12448;45.532;5.290;2023-01-05T11:05:45;38.22;;;27.10;;
24325;SDS011;12448;45.532;5.290;2023-01-05T11:07:51;11.18;;;6.55;;
24325;SDS011;12448;45.532;5.290;2023-01-05T11:10:27;45.35;;;31.42;;
24325;SDS011;12448;45.532;5.290;2023-01-05T11:13:00;35.63;;;23.15;;
24325;SDS011;12448;45.532;5.290;2023-01-05T11:15:32;18.45;;;11.77;;
24325;SDS011;12448;45.532;5.290;2023-01-05T11:18:05;46.78;;;33.53;;
24325;SDS011;12448;45.532;5.290;2023-01-05T11:20:44;18.00;;;12.88;;
24325;SDS011;12448;45.532;5.290;2023-01-05T11:23:44;26.90;;;18.80;;
24325;SDS011;12448;45.532;5.290;2023-01-05T11:26:22;41.53;;;29.35;;
24325;SDS011;12448;45.532;5.290;2023-01-05T11:31:31;26.92;;;21.83;;
24325;SDS011;12448;45.532;5.290;2023-01-05T11:34:05;16.85;;;14.40;;
24325;SDS011;12448;45.532;5.290;2023-01-05T11:36:36;18.88;;;15.88;;
24325;SDS011;12448;45.532;5.290;2023-01-05T11:39:02;43.22;;;35.28;;
24325;SDS011;12448;45.532;5.290;2023-01-05T11:41:28;18.33;;;16.63;;
24325;SDS011;12448;45.532;5.290;2023-01-05T11:43:54;7.68;;;4.07;;
24325;SDS011;12448;45.532;5.290;2023-01-05T11:46:24;10.40;;;7.80;;
24325;SDS011;12448;45.532;5.290;2023-01-05T11:48:51;458.77;;;305.98;;
24325;SDS011;12448;45.532;5.290;2023-01-05T11:51:32;59.97;;;41.33;;
24325;SDS011;12448;45.532;5.290;2023-01-05T11:53:59;21.10;;;17.77;;
24325;SDS011;12448;45.532;5.290;2023-01-05T11:56:25;6.82;;;3.83;;
24325;SDS011;12448;45.532;5.290;2023-01-05T11:58:51;8.43;;;6.38;;
24325;SDS011;12448;45.532;5.290;2023-01-05T12:07:10;5.20;;;4.35;;
24325;SDS011;12448;45.532;5.290;2023-01-05T12:09:46;4.55;;;3.60;;
24325;SDS011;12448;45.532;5.290;2023-01-05T12:20:52;7.72;;;5.75;;
24325;SDS011;12448;45.532;5.290;2023-01-05T12:32:14;6.55;;;4.80;;
24325;SDS011;12448;45.532;5.290;2023-01-05T12:41:03;7.57;;;5.60;;
24325;SDS011;12448;45.532;5.290;2023-01-05T12:46:17;15.27;;;6.97;;
24325;SDS011;12448;45.532;5.290;2023-01-05T12:48:52;14.18;;;7.82;;
24325;SDS011;12448;45.532;5.290;2023-01-05T12:51:29;6.47;;;5.03;;
24325;SDS011;12448;45.532;5.290;2023-01-05T12:54:08;6.00;;;4.53;;
24325;SDS011;12448;45.532;5.290;2023-01-05T12:56:52;9.57;;;5.78;;
24325;SDS011;12448;45.532;5.290;2023-01-05T13:07:36;14.00;;;7.47;;
24325;SDS011;12448;45.532;5.290;2023-01-05T13:10:04;9.50;;;7.88;;
24325;SDS011;12448;45.532;5.290;2023-01-05T13:12:38;158.63;;;12.82;;
24325;SDS011;12448;45.532;5.290;2023-01-05T13:15:11;470.40;;;18.90;;
24325;SDS011;12448;45.532;5.290;2023-01-05T13:17:47;470.83;;;20.75;;
24325;SDS011;12448;45.532;5.290;2023-01-05T13:20:22;270.13;;;14.50;;
24325;SDS011;12448;45.532;5.290;2023-01-05T13:22:59;9.00;;;6.68;;
24325;SDS011;12448;45.532;5.290;2023-01-05T13:25:31;10.30;;;7.20;;
24325;SDS011;12448;45.532;5.290;2023-01-05T13:28:02;10.30;;;7.90;;
24325;SDS011;12448;45.532;5.290;2023-01-05T13:30:30;8.32;;;6.72;;
24325;SDS011;12448;45.532;5.290;2023-01-05T13:48:07;44.45;;;6.38;;
24325;SDS011;12448;45.532;5.290;2023-01-05T13:53:44;8.65;;;5.82;;
24325;SDS011;12448;45.532;5.290;2023-01-05T13:56:16;5.60;;;4.18;;
24325;SDS011;12448;45.532;5.290;2023-01-05T13:58:48;7.75;;;4.38;;
24325;SDS011;12448;45.532;5.290;2023-01-05T14:01:32;5.22;;;4.57;;
24325;SDS011;12448;45.532;5.290;2023-01-05T14:04:04;7.03;;;4.60;;
24325;SDS011;12448;45.532;5.290;2023-01-05T14:06:42;5.20;;;4.70;;
24325;SDS011;12448;45.532;5.290;2023-01-05T14:26:05;10.18;;;4.05;;
24325;SDS011;12448;45.532;5.290;2023-01-05T14:31:31;13.57;;;7.18;;
24325;SDS011;12448;45.532;5.290;2023-01-05T14:33:52;21.55;;;13.77;;
24325;SDS011;12448;45.532;5.290;2023-01-05T14:36:33;17.88;;;14.88;;
24325;SDS011;12448;45.532;5.290;2023-01-05T14:41:42;6.70;;;6.00;;
24325;SDS011;12448;45.532;5.290;2023-01-05T14:44:28;10.38;;;8.27;;
24325;SDS011;12448;45.532;5.290;2023-01-05T14:47:14;4.78;;;3.63;;
24325;SDS011;12448;45.532;5.290;2023-01-05T14:49:50;7.75;;;6.95;;
24325;SDS011;12448;45.532;5.290;2023-01-05T14:52:19;3.38;;;3.08;;
24325;SDS011;12448;45.532;5.290;2023-01-05T14:55:22;5.53;;;2.90;;
24325;SDS011;12448;45.532;5.290;2023-01-05T14:57:51;3.03;;;2.72;;
24325;SDS011;12448;45.532;5.290;2023-01-05T15:00:24;3.75;;;3.25;;
24325;SDS011;12448;45.532;5.290;2023-01-05T15:03:11;4.07;;;3.45;;
24325;SDS011;12448;45.532;5.290;2023-01-05T15:05:47;5.28;;;4.45;;
24325;SDS011;12448;45.532;5.290;2023-01-05T15:08:27;10.25;;;8.68;;
24325;SDS011;12448;45.532;5.290;2023-01-05T15:11:13;5.93;;;4.80;;
24325;SDS011;12448;45.532;5.290;2023-01-05T15:16:49;11.88;;;8.77;;
24325;SDS011;12448;45.532;5.290;2023-01-05T15:22:27;7.35;;;4.10;;
24325;SDS011;12448;45.532;5.290;2023-01-05T15:25:15;6.60;;;3.53;;
24325;SDS011;12448;45.532;5.290;2023-01-05T15:36:36;10.45;;;5.50;;
24325;SDS011;12448;45.532;5.290;2023-01-05T15:44:46;24.52;;;7.35;;
24325;SDS011;12448;45.532;5.290;2023-01-05T15:47:15;12.95;;;5.97;;
24325;SDS011;12448;45.532;5.290;2023-01-05T15:49:42;51.97;;;9.98;;
24325;SDS011;12448;45.532;5.290;2023-01-05T15:52:16;16.63;;;7.65;;
24325;SDS011;12448;45.532;5.290;2023-01-05T15:54:55;34.05;;;7.85;;
24325;SDS011;12448;45.532;5.290;2023-01-05T15:57:25;36.92;;;8.25;;
24325;SDS011;12448;45.532;5.290;2023-01-05T15:59:51;9.93;;;7.28;;
24325;SDS011;12448;45.532;5.290;2023-01-05T16:04:45;9.40;;;6.63;;
24325;SDS011;12448;45.532;5.290;2023-01-05T16:07:11;10.35;;;7.15;;
24325;SDS011;12448;45.532;5.290;2023-01-05T16:09:37;11.48;;;7.78;;
24325;SDS011;12448;45.532;5.290;2023-01-05T16:14:38;12.82;;;8.50;;
24325;SDS011;12448;45.532;5.290;2023-01-05T16:17:26;61.03;;;10.10;;
24325;SDS011;12448;45.532;5.290;2023-01-05T16:19:55;17.42;;;8.63;;
24325;SDS011;12448;45.532;5.290;2023-01-05T16:24:56;86.93;;;10.43;;
24325;SDS011;12448;45.532;5.290;2023-01-05T16:27:37;36.65;;;10.32;;
24325;SDS011;12448;45.532;5.290;2023-01-05T16:30:13;86.95;;;11.15;;
24325;SDS011;12448;45.532;5.290;2023-01-05T16:33:03;34.58;;;10.68;;
24325;SDS011;12448;45.532;5.290;2023-01-05T16:40:35;9.02;;;7.05;;
24325;SDS011;12448;45.532;5.290;2023-01-05T16:43:14;11.32;;;8.00;;
24325;SDS011;12448;45.532;5.290;2023-01-05T16:45:46;10.95;;;7.97;;
24325;SDS011;12448;45.532;5.290;2023-01-05T16:48:29;21.73;;;10.05;;
24325;SDS011;12448;45.532;5.290;2023-01-05T16:51:09;14.60;;;10.02;;
24325;SDS011;12448;45.532;5.290;2023-01-05T16:54:03;15.98;;;10.02;;
24325;SDS011;12448;45.532;5.290;2023-01-05T16:56:54;23.30;;;9.73;;
24325;SDS011;12448;45.532;5.290;2023-01-05T17:04:56;16.90;;;11.45;;
24325;SDS011;12448;45.532;5.290;2023-01-05T17:07:22;14.98;;;9.43;;
24325;SDS011;12448;45.532;5.290;2023-01-05T17:09:47;15.07;;;10.90;;
24325;SDS011;12448;45.532;5.290;2023-01-05T17:12:14;15.07;;;11.80;;
24325;SDS011;12448;45.532;5.290;2023-01-05T17:14:40;15.85;;;11.57;;
24325;SDS011;12448;45.532;5.290;2023-01-05T17:17:10;16.73;;;11.90;;
24325;SDS011;12448;45.532;5.290;2023-01-05T17:19:36;18.42;;;12.55;;
24325;SDS011;12448;45.532;5.290;2023-01-05T17:22:02;25.48;;;14.35;;
24325;SDS011;12448;45.532;5.290;2023-01-05T17:24:31;22.08;;;13.52;;
24325;SDS011;12448;45.532;5.290;2023-01-05T17:26:58;15.93;;;10.88;;
24325;SDS011;12448;45.532;5.290;2023-01-05T17:29:25;19.38;;;12.38;;
24325;SDS011;12448;45.532;5.290;2023-01-05T17:31:56;17.20;;;12.70;;
24325;SDS011;12448;45.532;5.290;2023-01-05T17:34:22;20.27;;;14.32;;
24325;SDS011;12448;45.532;5.290;2023-01-05T17:36:48;22.88;;;15.05;;
24325;SDS011;12448;45.532;5.290;2023-01-05T17:39:18;18.45;;;12.10;;
24325;SDS011;12448;45.532;5.290;2023-01-05T17:41:44;20.80;;;12.35;;
24325;SDS011;12448;45.532;5.290;2023-01-05T17:44:10;22.83;;;13.90;;
24325;SDS011;12448;45.532;5.290;2023-01-05T17:46:38;22.67;;;14.05;;
24325;SDS011;12448;45.532;5.290;2023-01-05T17:49:06;22.50;;;14.65;;
24325;SDS011;12448;45.532;5.290;2023-01-05T17:51:36;24.02;;;14.73;;
24325;SDS011;12448;45.532;5.290;2023-01-05T17:54:02;19.73;;;13.35;;
24325;SDS011;12448;45.532;5.290;2023-01-05T17:56:28;22.58;;;13.52;;
24325;SDS011;12448;45.532;5.290;2023-01-05T17:58:53;19.67;;;13.45;;
24325;SDS011;12448;45.532;5.290;2023-01-05T18:01:19;14.10;;;10.75;;
24325;SDS011;12448;45.532;5.290;2023-01-05T18:03:44;16.95;;;12.45;;
24325;SDS011;12448;45.532;5.290;2023-01-05T18:06:10;15.25;;;7.82;;